Atlantic Highlands, New Jersey
Current Conditions -  °F | °C
As of 7:15 AM on Thursday 29 Jan 2015 (Local Time) from KBLM Reporting Station
Clear Clear  
Wind Chill:   Ceiling: Unl
Heat Index: 10°   Visibility: 10mi
Dew Point: -2°   Wind: 7mph
Humidity: 57%   Direction: 310°NW
Pressure: 30.32"   Gusts: NA
Location:  40.41°N, 74.03°W
Report Text: KBLM 291215Z AUTO 31006KT 10SM CLR M12/M19 A3032 RMK AO1
Loading
Personal Weather Stations






























Interactive Weather Map New forecast layout! Learn more

10-Day Weather Forecast

Advertisements
Track Severe Weather on mobile